Aviation Digital Data Service (ADDS)

Output produced by METARs form (0021 UTC 17 July 2019)
found at http://www.aviationweather.gov/metar/data/
 
TAF TAPA 161700Z 1618/1718 08012KT 9999 SCT020 
     PROB40 
     TEMPO 1703/1714 SHRA